Time;durP1;ratioP1;P1;durP2;ratioP2;P2;SDS_P1;SDS_P2;PMS_P1;PMS_P2;Temp;Humidity;BMP_temperature;BMP_pressure;BME280_temperature;BME280_humidity;BME280_pressure;Samples;Min_cycle;Max_cycle;Signal;HPM_P1;HPM_P2
2023/03/13 00:02:13;;;;;;;1.70;1.03;;;9.00;99.90;;;;;;5035156;28;20226;-84
2023/03/13 00:04:39;;;;;;;1.83;0.93;;;9.00;99.90;;;;;;5037286;28;20224;-85
2023/03/13 00:07:06;;;;;;;2.97;1.37;;;9.00;99.90;;;;;;5037919;28;20238;-83
2023/03/13 00:09:31;;;;;;;2.70;1.07;;;9.00;99.90;;;;;;5037285;28;20197;-84
2023/03/13 00:11:57;;;;;;;6.47;3.23;;;9.00;99.90;;;;;;5021365;28;20717;-87
2023/03/13 00:14:23;;;;;;;1.60;0.63;;;8.90;99.90;;;;;;5028143;28;20214;-87
2023/03/13 00:16:48;;;;;;;9.87;1.33;;;8.90;99.90;;;;;;5037697;28;20342;-84
2023/03/13 00:19:14;;;;;;;2.83;1.87;;;8.90;99.90;;;;;;5028049;28;20252;-85
2023/03/13 00:21:40;;;;;;;4.73;1.20;;;8.90;99.90;;;;;;5020612;28;20968;-85
2023/03/13 00:24:08;;;;;;;3.83;0.70;;;9.00;99.90;;;;;;5036509;28;20237;-85
2023/03/13 00:26:33;;;;;;;0.67;0.67;;;9.00;99.90;;;;;;5043842;28;20630;-85
2023/03/13 00:28:59;;;;;;;4.37;1.00;;;9.00;99.90;;;;;;5027020;28;20624;-85
2023/03/13 00:31:28;;;;;;;6.30;1.80;;;9.00;99.90;;;;;;5033815;28;20738;-85
2023/03/13 00:34:01;;;;;;;17.23;2.20;;;9.00;99.90;;;;;;5035935;28;20193;-84
2023/03/13 00:36:29;;;;;;;7.30;1.20;;;9.00;99.90;;;;;;5040429;28;20183;-87
2023/03/13 00:38:56;;;;;;;10.30;2.17;;;9.10;99.90;;;;;;5034426;28;20641;-86
2023/03/13 00:41:28;;;;;;;0.47;0.47;;;9.10;99.90;;;;;;5034703;28;20222;-84
2023/03/13 00:43:54;;;;;;;3.60;2.60;;;9.10;99.90;;;;;;5036266;28;20242;-84
2023/03/13 00:46:22;;;;;;;12.73;1.63;;;9.10;99.90;;;;;;5036126;28;20253;-85
2023/03/13 00:48:48;;;;;;;4.00;2.07;;;9.20;99.90;;;;;;5038872;28;20198;-86
2023/03/13 00:51:15;;;;;;;3.53;1.70;;;9.20;99.90;;;;;;5028359;28;20198;-83
2023/03/13 00:53:42;;;;;;;4.00;3.60;;;9.20;99.90;;;;;;5036973;28;20221;-85
2023/03/13 00:56:13;;;;;;;4.67;2.43;;;9.20;99.90;;;;;;5025822;28;20584;-88
2023/03/13 00:58:41;;;;;;;1.77;1.60;;;9.20;99.90;;;;;;5034516;28;20256;-86
2023/03/13 01:01:09;;;;;;;5.90;1.83;;;9.20;99.90;;;;;;5060722;28;20255;-85
2023/03/13 01:03:36;;;;;;;5.37;2.33;;;9.20;99.90;;;;;;5036713;28;20217;-84
2023/03/13 01:06:04;;;;;;;9.47;1.73;;;9.20;99.90;;;;;;5035855;28;20222;-83
2023/03/13 01:08:30;;;;;;;5.93;1.27;;;9.20;99.90;;;;;;5035957;28;20761;-84
2023/03/13 01:11:11;;;;;;;0.97;0.97;;;9.20;99.90;;;;;;5037416;28;20237;-85
2023/03/13 01:13:37;;;;;;;3.53;2.23;;;9.20;99.90;;;;;;5051318;28;20668;-86
2023/03/13 01:16:12;;;;;;;1.90;1.80;;;9.20;99.90;;;;;;5035729;28;20214;-85
2023/03/13 01:18:42;;;;;;;7.37;2.47;;;9.20;99.90;;;;;;5033466;28;20175;-84
2023/03/13 01:21:08;;;;;;;0.67;0.67;;;9.20;99.90;;;;;;5038318;28;20186;-86
2023/03/13 01:23:34;;;;;;;2.60;2.40;;;9.20;99.90;;;;;;5019780;28;20212;-84
2023/03/13 01:26:02;;;;;;;5.50;3.37;;;9.20;99.90;;;;;;5036877;28;20234;-84
2023/03/13 01:28:28;;;;;;;10.40;2.20;;;9.20;99.90;;;;;;5033218;28;20221;-86
2023/03/13 01:30:54;;;;;;;5.83;2.50;;;9.20;99.90;;;;;;5035701;28;20214;-85
2023/03/13 01:33:19;;;;;;;2.23;1.33;;;9.20;99.90;;;;;;5034582;28;20242;-84
2023/03/13 01:35:45;;;;;;;3.93;1.63;;;9.30;99.90;;;;;;5035464;28;20360;-84
2023/03/13 01:38:11;;;;;;;1.83;1.73;;;9.30;99.90;;;;;;5037549;28;20268;-86
2023/03/13 01:40:46;;;;;;;2.70;1.30;;;9.40;99.90;;;;;;5037088;28;20237;-85
2023/03/13 01:43:34;;;;;;;1.57;1.50;;;9.40;99.90;;;;;;5035739;28;20237;-84
2023/03/13 01:46:19;;;;;;;14.33;3.07;;;9.40;99.90;;;;;;5035227;28;20733;-85
2023/03/13 01:48:57;;;;;;;10.43;1.77;;;9.40;99.90;;;;;;5035582;28;20175;-85
2023/03/13 01:51:28;;;;;;;2.00;1.63;;;9.40;99.90;;;;;;5036484;28;20206;-86
2023/03/13 01:54:00;;;;;;;0.97;0.87;;;9.40;99.90;;;;;;5034812;28;20215;-84
2023/03/13 01:56:33;;;;;;;0.90;0.90;;;9.40;99.90;;;;;;5060178;28;20232;-86
2023/03/13 01:58:59;;;;;;;3.07;2.00;;;9.30;99.90;;;;;;5036244;28;20217;-84
2023/03/13 02:01:26;;;;;;;1.73;1.10;;;9.40;99.90;;;;;;5035546;28;20675;-86
2023/03/13 02:03:52;;;;;;;1.13;1.03;;;9.40;99.90;;;;;;5034916;28;20193;-84
2023/03/13 02:06:18;;;;;;;5.20;1.60;;;9.40;99.90;;;;;;5032552;28;21053;-86
2023/03/13 02:08:50;;;;;;;2.20;1.40;;;9.40;99.90;;;;;;5024113;28;21166;-84
2023/03/13 02:11:36;;;;;;;0.80;0.73;;;9.40;99.90;;;;;;5033853;28;20700;-84
2023/03/13 02:14:03;;;;;;;1.87;1.60;;;9.50;99.90;;;;;;5058860;28;20220;-87
2023/03/13 02:16:31;;;;;;;3.13;2.83;;;9.50;99.90;;;;;;5035024;28;20567;-86
2023/03/13 02:18:57;;;;;;;2.93;1.60;;;9.50;99.90;;;;;;5033878;28;20190;-82
2023/03/13 02:21:48;;;;;;;1.63;1.30;;;9.60;99.90;;;;;;5024577;28;20206;-84
2023/03/13 02:24:27;;;;;;;3.50;0.93;;;9.60;99.90;;;;;;5036954;28;20202;-84
2023/03/13 02:26:53;;;;;;;11.03;1.17;;;9.60;99.90;;;;;;5034134;28;20218;-84
2023/03/13 02:29:19;;;;;;;2.93;1.47;;;9.70;99.90;;;;;;5026369;28;20245;-84
2023/03/13 02:31:46;;;;;;;1.00;1.00;;;9.70;99.90;;;;;;5035458;28;20629;-84
2023/03/13 02:34:16;;;;;;;6.50;1.37;;;9.70;99.90;;;;;;5031696;28;20222;-84
2023/03/13 02:36:43;;;;;;;1.10;1.07;;;9.70;99.90;;;;;;5035150;28;20188;-84
2023/03/13 02:39:11;;;;;;;1.93;1.77;;;9.80;99.90;;;;;;5033801;28;20174;-84
2023/03/13 02:41:39;;;;;;;2.57;1.50;;;9.70;99.90;;;;;;5035439;28;20222;-86
2023/03/13 02:44:05;;;;;;;1.87;1.43;;;9.80;99.90;;;;;;5033120;28;20747;-84
2023/03/13 02:46:46;;;;;;;0.20;0.20;;;9.80;99.90;;;;;;5000321;28;20210;-84
2023/03/13 02:49:23;;;;;;;1.30;1.20;;;9.80;99.90;;;;;;5036736;28;20675;-83
2023/03/13 02:51:50;;;;;;;0.60;0.60;;;9.80;99.90;;;;;;5035027;28;20790;-84
2023/03/13 02:54:20;;;;;;;4.37;1.83;;;9.90;99.90;;;;;;5035120;28;20285;-82
2023/03/13 02:56:56;;;;;;;2.93;1.30;;;9.80;99.90;;;;;;5034943;28;20304;-84
2023/03/13 02:59:22;;;;;;;1.33;1.23;;;9.90;99.90;;;;;;5032866;28;20218;-90
2023/03/13 03:01:51;;;;;;;4.43;2.10;;;9.90;99.90;;;;;;5034126;28;20281;-84
2023/03/13 03:04:19;;;;;;;1.53;1.43;;;9.90;99.90;;;;;;5035826;28;20279;-83
2023/03/13 03:06:45;;;;;;;0.40;0.40;;;10.00;99.90;;;;;;5031007;28;20213;-86
2023/03/13 03:09:11;;;;;;;0.60;0.60;;;10.00;99.90;;;;;;5034840;28;20201;-89
2023/03/13 03:11:37;;;;;;;2.10;1.40;;;10.00;99.90;;;;;;5034294;28;20241;-83
2023/03/13 03:14:04;;;;;;;1.97;1.87;;;10.00;99.90;;;;;;5035302;28;20222;-84
2023/03/13 03:16:30;;;;;;;0.83;0.77;;;10.00;99.90;;;;;;5036501;28;20220;-83
2023/03/13 03:18:55;;;;;;;1.37;1.10;;;10.10;99.90;;;;;;5039386;28;20183;-85
2023/03/13 03:21:22;;;;;;;0.73;0.73;;;10.10;99.90;;;;;;5036396;28;21000;-85
2023/03/13 03:23:49;;;;;;;1.37;0.70;;;10.10;99.90;;;;;;5038091;28;20246;-84
2023/03/13 03:26:15;;;;;;;1.20;1.10;;;10.10;99.90;;;;;;5034874;28;20214;-83
2023/03/13 03:28:41;;;;;;;0.77;0.77;;;10.10;99.90;;;;;;5021089;28;20765;-87
2023/03/13 03:31:10;;;;;;;1.00;0.90;;;10.10;99.90;;;;;;5039145;28;20268;-84
2023/03/13 03:33:36;;;;;;;1.00;1.00;;;10.20;99.90;;;;;;5038759;28;20253;-82
2023/03/13 03:36:10;;;;;;;0.87;0.80;;;10.10;99.90;;;;;;5036441;28;20203;-89
2023/03/13 03:38:38;;;;;;;1.07;0.83;;;10.20;99.90;;;;;;5038182;28;20206;-85
2023/03/13 03:41:05;;;;;;;0.93;0.93;;;10.20;99.90;;;;;;5027583;28;20222;-85
2023/03/13 03:43:31;;;;;;;1.13;1.10;;;10.20;99.90;;;;;;5034442;28;20214;-83
2023/03/13 03:45:57;;;;;;;0.27;0.27;;;10.20;99.90;;;;;;5038743;28;20687;-82
2023/03/13 03:48:23;;;;;;;0.70;0.70;;;10.20;99.90;;;;;;5037953;28;20187;-84
2023/03/13 03:50:48;;;;;;;1.57;0.40;;;10.30;99.90;;;;;;5035974;28;20869;-84
2023/03/13 03:53:14;;;;;;;0.43;0.40;;;10.30;99.90;;;;;;5033792;28;20329;-82
2023/03/13 03:55:40;;;;;;;0.57;0.57;;;10.30;99.90;;;;;;5020730;28;20209;-83
2023/03/13 03:58:06;;;;;;;1.37;0.70;;;10.40;99.90;;;;;;5035568;28;20214;-86
2023/03/13 04:00:31;;;;;;;1.33;0.90;;;10.40;99.90;;;;;;5028408;28;20194;-84
2023/03/13 04:02:57;;;;;;;1.03;0.67;;;10.40;99.90;;;;;;5035327;28;21125;-83
2023/03/13 04:05:23;;;;;;;1.47;1.30;;;10.40;99.90;;;;;;5037364;28;20236;-82
2023/03/13 04:07:49;;;;;;;1.60;1.50;;;10.40;99.90;;;;;;5035835;28;20221;-87
2023/03/13 04:10:15;;;;;;;1.07;0.90;;;10.50;99.90;;;;;;5038453;28;20218;-85
2023/03/13 04:12:41;;;;;;;1.90;1.17;;;10.50;99.90;;;;;;5028091;28;20295;-81
2023/03/13 04:15:08;;;;;;;1.20;1.00;;;10.60;99.90;;;;;;5026925;28;20507;-85
2023/03/13 04:17:34;;;;;;;1.30;1.20;;;10.60;99.90;;;;;;5037442;28;20654;-82
2023/03/13 04:19:59;;;;;;;3.10;1.70;;;10.60;99.90;;;;;;5036781;28;20318;-82
2023/03/13 04:22:25;;;;;;;5.30;1.90;;;10.70;99.90;;;;;;5037214;28;20236;-85
2023/03/13 04:24:52;;;;;;;0.50;0.50;;;10.70;99.90;;;;;;5036347;28;20262;-83
2023/03/13 04:27:17;;;;;;;1.87;1.77;;;10.80;99.90;;;;;;5038551;28;20519;-83
2023/03/13 04:29:44;;;;;;;3.17;1.20;;;10.90;99.90;;;;;;5036706;28;20238;-84
2023/03/13 04:32:09;;;;;;;2.13;1.53;;;11.00;99.90;;;;;;5037696;28;20895;-86
2023/03/13 04:34:35;;;;;;;1.03;0.93;;;11.00;99.90;;;;;;5033011;28;20217;-88
2023/03/13 04:37:01;;;;;;;2.10;1.67;;;11.00;99.90;;;;;;5025491;28;20680;-86
2023/03/13 04:39:27;;;;;;;3.30;1.43;;;11.00;99.90;;;;;;5035726;28;20252;-85
2023/03/13 04:41:56;;;;;;;5.23;2.30;;;11.00;99.90;;;;;;5029380;28;20287;-85
2023/03/13 04:44:22;;;;;;;7.50;0.90;;;11.10;99.90;;;;;;5034445;28;20207;-87
2023/03/13 04:46:48;;;;;;;9.90;2.10;;;11.10;99.90;;;;;;5033117;28;20734;-83
2023/03/13 04:49:15;;;;;;;3.23;1.20;;;11.20;99.90;;;;;;5033905;28;20218;-88
2023/03/13 04:51:42;;;;;;;0.80;0.80;;;11.20;99.90;;;;;;5033458;28;20349;-85
2023/03/13 04:54:08;;;;;;;2.73;2.10;;;11.20;99.90;;;;;;5032870;28;20284;-85
2023/03/13 04:56:34;;;;;;;1.47;1.23;;;11.20;99.90;;;;;;5037006;28;20226;-86
2023/03/13 04:59:00;;;;;;;1.77;1.23;;;11.20;99.90;;;;;;5027915;28;20222;-84
2023/03/13 05:01:25;;;;;;;1.93;1.27;;;11.30;99.90;;;;;;5035718;28;20575;-83
2023/03/13 05:03:51;;;;;;;2.50;1.17;;;11.30;99.90;;;;;;5034468;28;20979;-86
2023/03/13 05:06:17;;;;;;;1.37;1.33;;;11.30;99.90;;;;;;5033526;28;20247;-85
2023/03/13 05:08:43;;;;;;;8.37;2.53;;;11.40;99.90;;;;;;5025908;28;20221;-85
2023/03/13 05:11:09;;;;;;;1.63;1.17;;;11.40;99.90;;;;;;5034848;28;20737;-84
2023/03/13 05:13:35;;;;;;;2.50;0.97;;;11.40;99.90;;;;;;5036408;28;20566;-85
2023/03/13 05:16:01;;;;;;;2.57;1.33;;;11.40;99.90;;;;;;5034227;28;20221;-88
2023/03/13 05:18:27;;;;;;;9.77;1.30;;;11.40;99.90;;;;;;5031771;28;20542;-85
2023/03/13 05:20:53;;;;;;;1.27;1.27;;;11.40;99.90;;;;;;5037562;28;20222;-91
2023/03/13 05:23:19;;;;;;;8.70;1.80;;;11.40;99.90;;;;;;5032132;28;20218;-84
2023/03/13 05:25:44;;;;;;;1.17;0.67;;;11.40;99.90;;;;;;5036220;28;20220;-83
2023/03/13 05:28:10;;;;;;;0.53;0.53;;;11.50;99.90;;;;;;5032628;28;20734;-88
2023/03/13 05:30:36;;;;;;;5.57;2.47;;;11.50;99.90;;;;;;5025581;28;20246;-86
2023/03/13 05:33:03;;;;;;;0.60;0.60;;;11.50;99.90;;;;;;5033479;28;20278;-88
2023/03/13 05:35:29;;;;;;;0.40;0.40;;;11.50;99.90;;;;;;5023316;28;20216;-82
2023/03/13 05:37:54;;;;;;;3.00;1.33;;;11.50;99.90;;;;;;5038007;28;20218;-85
2023/03/13 05:40:22;;;;;;;2.20;2.00;;;11.50;99.90;;;;;;5043164;28;20205;-85
2023/03/13 05:42:48;;;;;;;2.07;1.30;;;11.50;99.90;;;;;;5043726;28;20193;-85
2023/03/13 05:45:14;;;;;;;0.83;0.83;;;11.60;99.90;;;;;;5033873;28;20526;-87
2023/03/13 05:47:40;;;;;;;2.70;1.10;;;11.50;99.90;;;;;;5041012;28;20710;-85
2023/03/13 05:50:07;;;;;;;0.70;0.70;;;11.50;99.90;;;;;;5040879;28;20233;-85
2023/03/13 05:52:33;;;;;;;2.33;1.37;;;11.60;99.90;;;;;;5041819;28;20225;-83
2023/03/13 05:54:59;;;;;;;2.30;1.13;;;11.60;99.90;;;;;;5041593;28;20250;-84
2023/03/13 05:57:25;;;;;;;6.50;1.87;;;11.60;99.90;;;;;;5038551;28;20220;-83
2023/03/13 05:59:51;;;;;;;1.57;1.10;;;11.60;99.90;;;;;;5006128;28;20221;-87
2023/03/13 06:02:16;;;;;;;2.07;0.87;;;11.60;99.90;;;;;;5037911;28;20218;-83
2023/03/13 06:04:42;;;;;;;2.53;1.33;;;11.60;99.90;;;;;;5041321;28;20213;-83
2023/03/13 06:07:08;;;;;;;1.97;1.67;;;11.60;99.90;;;;;;5022238;28;20214;-85
2023/03/13 06:09:33;;;;;;;6.13;1.47;;;11.60;99.90;;;;;;5035523;28;20182;-83
2023/03/13 06:11:59;;;;;;;4.90;1.93;;;11.60;99.90;;;;;;5033507;28;20266;-89
2023/03/13 06:14:25;;;;;;;3.10;2.27;;;11.70;99.90;;;;;;5037200;28;20214;-84
2023/03/13 06:16:53;;;;;;;4.80;1.30;;;11.70;99.90;;;;;;5035779;28;20229;-85
2023/03/13 06:19:21;;;;;;;7.30;2.83;;;11.70;99.90;;;;;;5036603;28;20281;-83
2023/03/13 06:21:47;;;;;;;6.23;2.30;;;11.70;99.90;;;;;;5035937;28;20272;-84
2023/03/13 06:24:13;;;;;;;4.63;1.90;;;11.70;99.90;;;;;;5037616;28;20313;-84
2023/03/13 06:26:38;;;;;;;3.60;2.40;;;11.70;99.90;;;;;;5040502;28;20222;-85
2023/03/13 06:29:04;;;;;;;1.60;1.27;;;11.80;99.90;;;;;;5029014;28;20263;-84
2023/03/13 06:31:31;;;;;;;3.27;2.10;;;11.80;99.90;;;;;;5037474;28;20534;-83
2023/03/13 06:33:56;;;;;;;3.30;1.23;;;11.80;99.90;;;;;;5040745;28;20234;-86
2023/03/13 06:36:23;;;;;;;7.40;1.30;;;11.80;99.90;;;;;;5036550;28;20194;-83
2023/03/13 06:38:49;;;;;;;4.97;2.60;;;11.80;99.90;;;;;;5027819;28;20275;-84
2023/03/13 06:41:15;;;;;;;3.43;2.10;;;11.90;99.90;;;;;;5036326;28;20214;-85
2023/03/13 06:43:41;;;;;;;1.50;1.10;;;11.90;99.90;;;;;;5040077;28;20252;-85
2023/03/13 06:46:14;;;;;;;2.07;1.97;;;11.90;99.90;;;;;;5024039;28;20215;-86
2023/03/13 06:48:39;;;;;;;3.73;1.63;;;12.00;99.90;;;;;;5041111;28;20271;-83
2023/03/13 06:51:10;;;;;;;11.17;2.17;;;12.00;99.90;;;;;;5040827;28;20276;-85
2023/03/13 06:53:36;;;;;;;1.83;1.40;;;12.00;99.90;;;;;;5046725;28;20544;-84
2023/03/13 06:56:02;;;;;;;2.03;1.10;;;12.00;99.90;;;;;;5024811;28;20220;-82
2023/03/13 06:58:28;;;;;;;4.63;1.83;;;12.00;99.90;;;;;;5029477;28;20263;-82
2023/03/13 07:00:53;;;;;;;3.23;1.53;;;12.00;99.90;;;;;;5034320;28;20181;-82
2023/03/13 07:03:19;;;;;;;5.20;1.87;;;12.00;99.90;;;;;;5043131;28;20193;-82
2023/03/13 07:05:45;;;;;;;2.00;0.67;;;12.00;99.90;;;;;;5041156;28;20202;-83
2023/03/13 07:08:11;;;;;;;2.20;0.40;;;12.00;99.90;;;;;;5038348;28;20707;-89
2023/03/13 07:10:37;;;;;;;15.47;2.50;;;12.00;99.90;;;;;;5043090;28;20217;-82
2023/03/13 07:13:02;;;;;;;3.50;1.90;;;12.00;99.90;;;;;;5046079;28;20221;-86
2023/03/13 07:15:28;;;;;;;4.63;3.03;;;12.00;99.90;;;;;;5043645;28;20808;-83
2023/03/13 07:17:57;;;;;;;1.40;0.73;;;12.00;99.90;;;;;;5023476;28;20206;-89
2023/03/13 07:20:23;;;;;;;3.70;2.50;;;12.00;99.90;;;;;;5040696;28;20222;-83
2023/03/13 07:22:52;;;;;;;6.13;1.53;;;12.00;99.90;;;;;;5039676;28;20214;-83
2023/03/13 07:25:18;;;;;;;2.07;1.10;;;12.00;99.90;;;;;;5030284;28;20220;-83
2023/03/13 07:27:44;;;;;;;4.63;2.00;;;12.00;99.90;;;;;;5030335;28;20360;-89
2023/03/13 07:30:10;;;;;;;7.97;0.97;;;12.00;99.90;;;;;;5039434;28;20195;-83
2023/03/13 07:32:37;;;;;;;0.93;0.77;;;12.10;99.90;;;;;;5036215;28;20663;-86
2023/03/13 07:35:03;;;;;;;5.33;1.57;;;12.10;99.90;;;;;;5039069;28;20242;-82
2023/03/13 07:37:29;;;;;;;4.63;1.70;;;12.10;99.90;;;;;;5037666;28;20221;-82
2023/03/13 07:39:55;;;;;;;2.13;1.80;;;12.10;99.90;;;;;;5038886;28;20983;-86
2023/03/13 07:42:21;;;;;;;4.43;1.47;;;12.10;99.90;;;;;;5042662;28;20182;-82
2023/03/13 07:44:46;;;;;;;5.57;0.97;;;12.20;99.90;;;;;;5030179;28;20728;-86
2023/03/13 07:47:12;;;;;;;6.87;2.73;;;12.20;99.90;;;;;;5037574;28;20227;-84
2023/03/13 07:49:41;;;;;;;13.70;1.67;;;12.30;99.90;;;;;;5028748;28;20674;-83
2023/03/13 07:52:07;;;;;;;7.53;1.10;;;12.30;99.90;;;;;;5036344;28;20236;-82
2023/03/13 07:54:33;;;;;;;3.70;1.00;;;12.30;99.90;;;;;;5006248;28;20277;-84
2023/03/13 07:57:00;;;;;;;2.50;2.07;;;12.30;99.90;;;;;;5037726;28;20271;-82
2023/03/13 07:59:25;;;;;;;1.03;1.03;;;12.30;99.90;;;;;;5037591;28;20294;-82
2023/03/13 08:01:51;;;;;;;3.70;1.97;;;12.50;99.90;;;;;;5036809;28;20723;-82
2023/03/13 08:04:17;;;;;;;2.97;1.43;;;12.70;99.90;;;;;;5040434;28;20211;-84
2023/03/13 08:06:43;;;;;;;3.70;0.87;;;13.00;99.90;;;;;;5029741;28;20224;-85
2023/03/13 08:09:08;;;;;;;6.57;1.53;;;13.40;99.90;;;;;;5037756;28;20571;-85
2023/03/13 08:11:34;;;;;;;3.00;0.90;;;14.00;99.90;;;;;;5037537;28;20293;-86
2023/03/13 08:14:00;;;;;;;2.00;1.40;;;14.50;99.90;;;;;;5037896;28;20248;-83
2023/03/13 08:16:32;;;;;;;2.83;1.30;;;14.90;99.90;;;;;;5039444;28;20696;-84
2023/03/13 08:18:59;;;;;;;1.97;1.60;;;15.10;99.90;;;;;;5038622;28;20681;-90
2023/03/13 08:21:28;;;;;;;1.67;1.23;;;16.00;99.90;;;;;;5040770;28;20194;-82
2023/03/13 08:23:56;;;;;;;4.90;1.43;;;15.40;99.90;;;;;;5062169;28;20215;-83
2023/03/13 08:26:25;;;;;;;1.30;0.73;;;15.40;99.90;;;;;;5038585;28;20209;-83
2023/03/13 08:28:57;;;;;;;4.27;1.40;;;15.20;99.90;;;;;;5035959;28;20250;-83
2023/03/13 08:31:25;;;;;;;1.67;1.23;;;14.60;99.90;;;;;;5037959;28;20656;-82
2023/03/13 08:33:52;;;;;;;7.43;1.50;;;14.80;99.90;;;;;;5038225;28;20325;-90
2023/03/13 08:36:23;;;;;;;2.83;1.43;;;15.30;99.90;;;;;;5039523;28;20198;-82
2023/03/13 08:38:51;;;;;;;1.27;1.00;;;16.20;99.90;;;;;;5043091;28;20218;-88
2023/03/13 08:41:19;;;;;;;1.67;1.10;;;16.30;99.90;;;;;;5027404;28;20684;-84
2023/03/13 08:43:45;;;;;;;2.90;1.60;;;16.60;99.90;;;;;;5035213;28;20302;-87
2023/03/13 08:46:11;;;;;;;3.93;1.07;;;16.90;99.90;;;;;;5038325;28;20214;-85
2023/03/13 08:48:37;;;;;;;3.60;1.73;;;17.10;99.90;;;;;;5036647;28;20587;-84
2023/03/13 08:51:10;;;;;;;4.97;1.17;;;17.80;99.90;;;;;;5038253;28;20213;-83
2023/03/13 08:53:37;;;;;;;3.17;1.03;;;16.70;99.90;;;;;;5036207;28;20236;-84
2023/03/13 08:56:04;;;;;;;2.97;1.37;;;16.10;99.90;;;;;;5037417;28;20930;-83
2023/03/13 08:58:30;;;;;;;1.13;1.03;;;15.60;99.90;;;;;;5033709;28;20215;-84
2023/03/13 09:01:26;;;;;;;1.47;0.87;;;15.00;99.90;;;;;;5028143;28;20205;-87
2023/03/13 09:03:52;;;;;;;5.50;1.27;;;14.70;99.90;;;;;;5024894;28;20288;-84
2023/03/13 09:06:18;;;;;;;1.37;1.00;;;14.30;99.90;;;;;;5034423;28;20436;-88
2023/03/13 09:08:44;;;;;;;2.40;2.20;;;14.10;99.90;;;;;;5036888;28;20214;-83
2023/03/13 09:11:13;;;;;;;7.90;0.97;;;13.90;99.90;;;;;;5036020;28;20253;-87
2023/03/13 09:13:44;;;;;;;2.33;0.73;;;13.70;99.90;;;;;;5062227;28;20618;-82
2023/03/13 09:16:13;;;;;;;1.03;0.80;;;13.50;99.90;;;;;;5041689;28;20301;-86
2023/03/13 09:18:39;;;;;;;4.57;1.20;;;13.50;99.90;;;;;;5039793;28;20171;-88
2023/03/13 09:21:14;;;;;;;2.60;0.73;;;13.30;99.90;;;;;;5038473;28;20208;-84
2023/03/13 09:23:39;;;;;;;5.30;0.83;;;13.30;99.90;;;;;;5036995;28;20205;-82
2023/03/13 09:26:05;;;;;;;2.27;1.10;;;13.20;99.90;;;;;;5020604;28;20201;-86
2023/03/13 09:28:31;;;;;;;4.63;0.93;;;13.30;99.90;;;;;;5033110;28;20226;-85
2023/03/13 09:31:10;;;;;;;3.97;1.10;;;13.50;99.90;;;;;;5050505;28;20225;-86
2023/03/13 09:33:36;;;;;;;1.80;1.30;;;13.40;99.90;;;;;;5040166;28;20250;-85
2023/03/13 09:36:03;;;;;;;4.57;0.90;;;13.30;99.90;;;;;;5038201;28;20640;-82
2023/03/13 09:38:29;;;;;;;0.63;0.63;;;13.30;99.90;;;;;;5032894;28;20214;-82
2023/03/13 09:41:00;;;;;;;1.60;0.70;;;13.20;99.90;;;;;;5034160;28;20581;-89
2023/03/13 09:43:45;;;;;;;3.47;1.77;;;13.30;99.90;;;;;;5033973;28;20217;-85
2023/03/13 09:46:44;;;;;;;0.50;0.40;;;13.50;99.90;;;;;;5033116;28;20214;-82
2023/03/13 09:49:36;;;;;;;2.87;1.23;;;13.80;99.90;;;;;;5034103;28;20265;-85
2023/03/13 09:52:14;;;;;;;1.43;1.00;;;14.00;99.90;;;;;;5037542;28;21041;-84
2023/03/13 09:54:42;;;;;;;0.70;0.70;;;14.10;99.90;;;;;;5034235;28;20181;-85
2023/03/13 09:57:26;;;;;;;5.83;2.57;;;14.20;99.90;;;;;;5036509;28;20639;-83
2023/03/13 10:00:13;;;;;;;1.77;1.07;;;14.10;99.90;;;;;;5034653;28;20755;-84
2023/03/13 10:02:44;;;;;;;2.00;1.23;;;14.30;99.90;;;;;;5030743;28;20226;-81
2023/03/13 10:05:21;;;;;;;9.80;2.47;;;14.50;99.90;;;;;;5032685;28;20250;-86
2023/03/13 10:07:48;;;;;;;3.73;1.13;;;14.60;99.90;;;;;;5034954;28;20267;-83
2023/03/13 10:10:43;;;;;;;4.23;1.47;;;14.70;99.90;;;;;;5035491;28;20932;-85
2023/03/13 10:13:39;;;;;;;6.53;2.70;;;15.40;99.90;;;;;;5033273;28;20233;-82
2023/03/13 10:16:14;;;;;;;4.07;1.43;;;15.70;99.90;;;;;;5036715;28;20220;-88
2023/03/13 10:18:46;;;;;;;1.70;1.40;;;15.70;99.90;;;;;;5036106;28;20189;-82
2023/03/13 10:21:25;;;;;;;3.50;1.63;;;15.50;99.90;;;;;;5050585;28;20614;-87
2023/03/13 10:24:07;;;;;;;3.90;1.30;;;15.80;99.90;;;;;;5042131;28;20736;-85
2023/03/13 10:26:35;;;;;;;3.30;1.07;;;16.00;99.90;;;;;;5042324;28;20213;-89
2023/03/13 10:29:21;;;;;;;5.97;0.90;;;16.40;99.90;;;;;;5035046;28;20258;-86
2023/03/13 10:32:00;;;;;;;1.10;0.97;;;16.10;99.90;;;;;;5035681;28;20695;-82
2023/03/13 10:34:52;;;;;;;11.80;1.63;;;16.40;99.90;;;;;;5054068;28;20495;-86
2023/03/13 10:37:25;;;;;;;7.30;2.00;;;17.20;99.90;;;;;;5053823;28;20239;-83
2023/03/13 10:39:52;;;;;;;3.40;1.30;;;16.80;99.90;;;;;;5054779;28;20178;-89
2023/03/13 10:42:32;;;;;;;6.90;1.70;;;17.10;99.90;;;;;;5053814;28;20194;-83
2023/03/13 10:45:00;;;;;;;6.30;1.30;;;16.90;99.90;;;;;;5052987;28;20220;-83
2023/03/13 10:47:26;;;;;;;5.37;1.47;;;16.90;99.90;;;;;;5053212;28;20241;-83
2023/03/13 10:49:56;;;;;;;4.77;1.47;;;16.10;99.90;;;;;;5054122;28;20230;-83
2023/03/13 10:52:28;;;;;;;8.87;2.53;;;15.80;99.90;;;;;;5050857;28;20230;-85
2023/03/13 10:54:59;;;;;;;7.57;2.23;;;16.10;99.90;;;;;;5055773;28;20401;-84
2023/03/13 10:57:28;;;;;;;1.90;0.80;;;16.20;99.90;;;;;;5055345;28;20972;-88
2023/03/13 10:59:55;;;;;;;3.70;1.97;;;16.30;99.90;;;;;;5054928;28;20252;-87
2023/03/13 11:02:31;;;;;;;2.50;1.00;;;15.80;99.90;;;;;;5055667;28;20675;-84
2023/03/13 11:04:58;;;;;;;5.37;2.40;;;16.10;99.90;;;;;;5053939;28;20369;-84
2023/03/13 11:07:37;;;;;;;13.93;2.03;;;16.80;99.90;;;;;;5053897;28;20309;-87
2023/03/13 11:10:17;;;;;;;8.80;4.87;;;16.80;99.90;;;;;;5053714;28;20217;-83
2023/03/13 11:12:44;;;;;;;7.77;3.20;;;16.70;99.90;;;;;;5055394;28;20205;-86
2023/03/13 11:15:15;;;;;;;3.40;1.27;;;16.40;99.90;;;;;;5053009;28;20549;-86
2023/03/13 11:17:41;;;;;;;10.00;2.80;;;16.50;99.90;;;;;;5055691;28;20295;-85
2023/03/13 11:20:13;;;;;;;10.63;2.37;;;16.40;99.90;;;;;;5020201;28;20214;-87
2023/03/13 11:22:42;;;;;;;4.83;1.77;;;16.20;99.90;;;;;;5053578;28;20300;-85
2023/03/13 11:25:10;;;;;;;6.83;1.07;;;16.00;99.90;;;;;;5054521;28;20218;-87
2023/03/13 11:27:45;;;;;;;1.53;1.43;;;15.40;99.90;;;;;;5055443;28;20178;-85
2023/03/13 11:30:13;;;;;;;12.43;3.27;;;15.20;99.90;;;;;;5055411;28;20221;-84
2023/03/13 11:32:50;;;;;;;7.93;1.67;;;14.90;99.90;;;;;;5053640;28;20230;-87
2023/03/13 11:35:48;;;;;;;2.10;0.73;;;14.60;99.90;;;;;;5058711;28;20691;-89
2023/03/13 11:38:44;;;;;;;9.97;1.37;;;14.40;99.90;;;;;;5065899;28;20755;-83
2023/03/13 11:41:19;;;;;;;6.07;1.67;;;14.20;99.90;;;;;;5061746;28;20231;-84
2023/03/13 11:43:52;;;;;;;3.10;2.37;;;14.10;99.90;;;;;;5083514;28;20209;-87
2023/03/13 11:46:25;;;;;;;3.97;1.43;;;14.10;99.90;;;;;;5058578;28;20789;-85
2023/03/13 11:49:21;;;;;;;13.23;2.17;;;14.10;99.90;;;;;;5063425;28;20457;-84
2023/03/13 11:51:49;;;;;;;0.63;0.63;;;14.20;99.90;;;;;;5057878;28;20213;-84
2023/03/13 11:54:42;;;;;;;2.17;0.50;;;14.20;99.90;;;;;;5058776;28;20193;-85
2023/03/13 11:57:47;;;;;;;3.50;1.20;;;14.10;99.90;;;;;;5023952;28;20302;-83
2023/03/13 12:00:16;;;;;;;2.03;1.30;;;14.10;99.90;;;;;;4978514;28;20220;-84
2023/03/13 12:02:50;;;;;;;1.37;0.60;;;14.40;99.90;;;;;;5036193;28;20683;-84
2023/03/13 12:05:19;;;;;;;8.40;2.07;;;14.30;99.90;;;;;;5056602;28;20570;-88
2023/03/13 12:07:51;;;;;;;4.60;1.53;;;14.50;99.90;;;;;;5055867;28;20267;-84
2023/03/13 12:10:23;;;;;;;2.47;1.53;;;14.50;99.90;;;;;;5052933;28;20221;-90
2023/03/13 12:12:55;;;;;;;3.73;1.00;;;14.80;99.90;;;;;;5055464;28;20297;-84
2023/03/13 12:15:33;;;;;;;2.00;1.80;;;14.80;99.90;;;;;;5056203;28;20182;-86
2023/03/13 12:18:23;;;;;;;3.83;1.93;;;14.90;99.90;;;;;;5063764;28;20265;-84
2023/03/13 12:21:04;;;;;;;1.17;0.87;;;15.10;99.90;;;;;;5063439;28;20300;-84
2023/03/13 12:23:40;;;;;;;1.27;0.97;;;15.10;99.90;;;;;;5057918;28;20570;-87
2023/03/13 12:26:18;;;;;;;14.00;1.87;;;15.20;99.90;;;;;;5056696;28;20241;-87
2023/03/13 12:28:46;;;;;;;6.20;2.93;;;15.00;99.90;;;;;;5054637;28;20589;-84
2023/03/13 12:31:35;;;;;;;6.33;1.23;;;15.10;99.90;;;;;;5055553;28;20295;-84
2023/03/13 12:34:06;;;;;;;4.60;1.77;;;15.00;99.90;;;;;;5056200;28;20232;-84
2023/03/13 12:36:44;;;;;;;4.57;2.17;;;15.00;99.90;;;;;;5057990;28;20217;-83
2023/03/13 12:39:36;;;;;;;10.80;2.70;;;14.90;99.90;;;;;;5055396;28;20228;-84
2023/03/13 12:42:33;;;;;;;4.30;2.43;;;14.90;99.90;;;;;;5055951;28;20222;-85
2023/03/13 12:44:59;;;;;;;7.20;2.13;;;14.90;99.90;;;;;;5055205;28;20217;-86
2023/03/13 12:47:34;;;;;;;9.13;3.13;;;15.00;99.90;;;;;;5054948;28;20275;-84
2023/03/13 12:49:59;;;;;;;2.30;1.17;;;15.00;99.90;;;;;;5054498;28;20213;-82
2023/03/13 12:52:40;;;;;;;1.53;1.10;;;14.90;99.90;;;;;;5054983;28;20237;-85
2023/03/13 12:55:44;;;;;;;3.80;1.47;;;14.80;99.90;;;;;;5054464;28;20748;-85
2023/03/13 12:58:43;;;;;;;10.80;2.37;;;14.70;99.90;;;;;;5057227;28;20212;-83
2023/03/13 13:01:20;;;;;;;5.63;1.47;;;14.60;99.90;;;;;;5053493;28;20222;-83
2023/03/13 13:03:51;;;;;;;5.93;1.50;;;14.50;99.90;;;;;;5052668;28;20177;-82